createdAt,value
2023-01-11T00:00:08.480Z,5.85
2023-01-11T00:01:08.480Z,5.86
2023-01-11T00:02:08.479Z,5.86
2023-01-11T00:03:08.443Z,5.89
2023-01-11T00:04:08.455Z,5.89
2023-01-11T00:05:08.401Z,5.90
2023-01-11T00:06:08.428Z,5.90
2023-01-11T00:07:08.397Z,5.91
2023-01-11T00:08:08.387Z,5.91
2023-01-11T00:09:08.357Z,5.91
2023-01-11T00:10:08.371Z,5.91
2023-01-11T00:11:08.347Z,5.91
2023-01-11T00:12:08.356Z,5.94
2023-01-11T00:13:08.322Z,5.94
2023-01-11T00:14:08.320Z,5.96
2023-01-11T00:15:08.294Z,5.96
2023-01-11T00:16:08.368Z,5.97
2023-01-11T00:17:08.331Z,6.00
2023-01-11T00:18:08.298Z,5.97
2023-01-11T00:19:08.290Z,5.99
2023-01-11T00:20:08.277Z,6.00
2023-01-11T00:21:08.242Z,6.00
2023-01-11T00:22:08.237Z,6.01
2023-01-11T00:23:08.194Z,6.01
2023-01-11T00:24:08.247Z,6.03
2023-01-11T00:25:08.177Z,6.03
2023-01-11T00:26:08.190Z,6.03
2023-01-11T00:27:08.167Z,6.04
2023-01-11T00:28:08.209Z,6.04
2023-01-11T00:29:08.135Z,6.08
2023-01-11T00:30:08.222Z,6.09
2023-01-11T00:31:08.142Z,6.09
2023-01-11T00:32:08.126Z,6.09
2023-01-11T00:33:08.124Z,6.09
2023-01-11T00:34:08.107Z,6.11
2023-01-11T00:35:08.079Z,6.12
2023-01-11T00:36:08.078Z,6.12
2023-01-11T00:37:08.047Z,6.11
2023-01-11T00:38:08.060Z,6.14
2023-01-11T00:39:08.040Z,6.14
2023-01-11T00:40:08.072Z,6.14
2023-01-11T00:41:08.026Z,6.14
2023-01-11T00:42:08.024Z,6.14
2023-01-11T00:43:08.031Z,6.15
2023-01-11T00:44:07.992Z,6.15
2023-01-11T00:45:07.968Z,6.18
2023-01-11T00:46:08.035Z,6.18
2023-01-11T00:47:07.965Z,6.19
2023-01-11T00:48:07.979Z,6.19
2023-01-11T00:49:07.916Z,6.19
2023-01-11T00:50:07.917Z,6.21
2023-01-11T00:51:07.895Z,6.22
2023-01-11T00:52:07.968Z,6.25
2023-01-11T00:53:07.915Z,6.27
2023-01-11T00:54:07.918Z,6.31
2023-01-11T00:55:07.844Z,6.31
2023-01-11T00:56:07.869Z,6.33
2023-01-11T00:57:07.981Z,6.36
2023-01-11T00:58:07.823Z,6.36
2023-01-11T00:59:07.805Z,6.38
2023-01-11T01:00:07.824Z,6.38
2023-01-11T01:01:07.842Z,6.40
2023-01-11T01:02:07.873Z,6.43
2023-01-11T01:03:07.782Z,6.44
2023-01-11T01:04:07.769Z,6.48
2023-01-11T01:05:07.750Z,6.51
2023-01-11T01:06:07.790Z,6.52
2023-01-11T01:07:07.722Z,6.54
2023-01-11T01:08:07.733Z,6.55
2023-01-11T01:09:07.691Z,6.55
2023-01-11T01:10:07.709Z,6.55
2023-01-11T01:11:07.662Z,6.56
2023-01-11T01:12:07.675Z,6.59
2023-01-11T01:13:07.641Z,6.61
2023-01-11T01:14:07.652Z,6.62
2023-01-11T01:15:07.616Z,6.64
2023-01-11T01:16:07.647Z,6.66
2023-01-11T01:17:07.635Z,6.67
2023-01-11T01:18:07.582Z,6.67
2023-01-11T01:19:07.632Z,6.67
2023-01-11T01:20:07.596Z,6.69
2023-01-11T01:21:07.631Z,6.71
2023-01-11T01:22:07.560Z,6.73
2023-01-11T01:23:07.554Z,6.74
2023-01-11T01:24:07.565Z,6.76
2023-01-11T01:25:07.537Z,6.76
2023-01-11T01:26:07.501Z,6.79
2023-01-11T01:27:07.493Z,6.79
2023-01-11T01:28:07.452Z,6.80
2023-01-11T01:29:07.493Z,6.80
2023-01-11T01:30:07.441Z,6.80
2023-01-11T01:31:07.483Z,6.81
2023-01-11T01:32:07.442Z,6.81
2023-01-11T01:33:07.452Z,6.81
2023-01-11T01:34:07.420Z,6.84
2023-01-11T01:35:07.413Z,6.84
2023-01-11T01:36:07.390Z,6.84
2023-01-11T01:37:07.392Z,6.85
2023-01-11T01:38:07.354Z,6.85
2023-01-11T01:39:07.386Z,6.85
2023-01-11T01:40:07.335Z,6.85
2023-01-11T01:41:07.355Z,6.85
2023-01-11T01:42:07.310Z,6.85
2023-01-11T01:43:07.343Z,6.85
2023-01-11T01:44:07.370Z,6.85
2023-01-11T01:45:07.313Z,6.85
2023-01-11T01:46:07.314Z,6.87
2023-01-11T01:47:07.289Z,6.88
2023-01-11T01:48:07.251Z,6.88
2023-01-11T01:49:07.253Z,6.88
2023-01-11T01:50:07.220Z,6.89
2023-01-11T01:51:07.231Z,6.88
2023-01-11T01:52:07.200Z,6.91
2023-01-11T01:53:07.272Z,6.89
2023-01-11T01:54:07.181Z,6.91
2023-01-11T01:55:07.181Z,6.92
2023-01-11T01:56:07.160Z,6.94
2023-01-11T01:57:07.200Z,6.94
2023-01-11T01:58:07.141Z,6.94
2023-01-11T01:59:07.144Z,6.94
2023-01-11T02:00:07.101Z,6.94
2023-01-11T02:01:07.100Z,6.97
2023-01-11T02:02:07.072Z,6.98
2023-01-11T02:03:07.132Z,6.99
2023-01-11T02:04:07.071Z,6.99
2023-01-11T02:05:07.059Z,7.02
2023-01-11T02:06:07.042Z,7.03
2023-01-11T02:07:07.045Z,7.05
2023-01-11T02:08:06.999Z,7.05
2023-01-11T02:09:07.034Z,7.06
2023-01-11T02:10:07.877Z,7.06
2023-01-11T02:11:07.019Z,7.05
2023-01-11T02:12:06.961Z,7.06
2023-01-11T02:13:06.968Z,7.05
2023-01-11T02:14:06.938Z,7.06
2023-01-11T02:15:06.938Z,7.05
2023-01-11T02:16:07.006Z,7.03
2023-01-11T02:17:06.957Z,7.03
2023-01-11T02:18:06.878Z,7.05
2023-01-11T02:19:06.895Z,7.06
2023-01-11T02:20:06.871Z,7.06
2023-01-11T02:21:06.887Z,7.06
2023-01-11T02:22:06.846Z,7.07
2023-01-11T02:23:06.839Z,7.05
2023-01-11T02:24:06.817Z,7.07
2023-01-11T02:25:06.822Z,7.07
2023-01-11T02:26:06.783Z,7.09
2023-01-11T02:27:06.839Z,7.10
2023-01-11T02:28:06.769Z,7.13
2023-01-11T02:29:06.777Z,7.13
2023-01-11T02:30:06.753Z,7.15
2023-01-11T02:31:06.802Z,7.16
2023-01-11T02:32:06.728Z,7.17
2023-01-11T02:33:06.738Z,7.16
2023-01-11T02:34:06.697Z,7.16
2023-01-11T02:35:06.703Z,7.16
2023-01-11T02:36:06.676Z,7.17
2023-01-11T02:37:06.688Z,7.20
2023-01-11T02:38:06.650Z,7.21
2023-01-11T02:39:06.685Z,7.23
2023-01-11T02:40:06.626Z,7.23
2023-01-11T02:41:06.644Z,7.23
2023-01-11T02:42:06.620Z,7.21
2023-01-11T02:43:06.614Z,7.23
2023-01-11T02:44:06.578Z,7.23
2023-01-11T02:45:15.357Z,7.21
2023-01-11T02:46:06.604Z,7.21
2023-01-11T02:47:06.565Z,7.21
2023-01-11T02:48:06.535Z,7.23
2023-01-11T02:49:06.546Z,7.27
2023-01-11T02:50:06.543Z,7.30
2023-01-11T02:51:06.553Z,7.30
2023-01-11T02:52:06.539Z,7.31
2023-01-11T02:53:06.505Z,7.32
2023-01-11T02:54:06.473Z,7.32
2023-01-11T02:55:06.477Z,7.34
2023-01-11T02:56:06.472Z,7.35
2023-01-11T02:57:06.536Z,7.37
2023-01-11T02:58:06.453Z,7.34
2023-01-11T02:59:06.463Z,7.35
2023-01-11T03:00:06.425Z,7.35
2023-01-11T03:01:06.434Z,7.34
2023-01-11T03:02:06.412Z,7.32
2023-01-11T03:03:06.424Z,7.32
2023-01-11T03:04:06.375Z,7.31
2023-01-11T03:05:06.371Z,7.31
2023-01-11T03:06:06.347Z,7.30
2023-01-11T03:07:06.336Z,7.28
2023-01-11T03:08:06.321Z,7.30
2023-01-11T03:09:06.318Z,7.28
2023-01-11T03:10:07.014Z,7.30
2023-01-11T03:11:06.305Z,7.30
2023-01-11T03:12:06.259Z,7.28
2023-01-11T03:13:06.254Z,7.30
2023-01-11T03:14:06.231Z,7.28
2023-01-11T03:15:07.050Z,7.30
2023-01-11T03:16:06.312Z,7.28
2023-01-11T03:17:06.217Z,7.28
2023-01-11T03:18:06.186Z,7.28
2023-01-11T03:19:06.193Z,7.31
2023-01-11T03:20:06.190Z,7.30
2023-01-11T03:21:06.205Z,7.30
2023-01-11T03:22:06.189Z,7.30
2023-01-11T03:23:06.149Z,7.30
2023-01-11T03:24:06.123Z,7.30
2023-01-11T03:25:06.148Z,7.28
2023-01-11T03:26:06.132Z,7.30
2023-01-11T03:27:06.124Z,7.32
2023-01-11T03:28:06.109Z,7.31
2023-01-11T03:29:06.101Z,7.30
2023-01-11T03:30:06.054Z,7.30
2023-01-11T03:31:06.115Z,7.30
2023-01-11T03:32:06.027Z,7.31
2023-01-11T03:33:06.055Z,7.30
2023-01-11T03:34:06.028Z,7.32
2023-01-11T03:35:06.049Z,7.34
2023-01-11T03:36:05.983Z,7.32
2023-01-11T03:37:05.995Z,7.34
2023-01-11T03:38:05.964Z,7.35
2023-01-11T03:39:05.966Z,7.34
2023-01-11T03:40:05.957Z,7.34
2023-01-11T03:41:05.945Z,7.35
2023-01-11T03:42:05.929Z,7.35
2023-01-11T03:43:05.912Z,7.35
2023-01-11T03:44:05.889Z,7.37
2023-01-11T03:45:05.920Z,7.39
2023-01-11T03:46:05.861Z,7.39
2023-01-11T03:47:05.914Z,7.40
2023-01-11T03:48:05.833Z,7.42
2023-01-11T03:49:05.876Z,7.42
2023-01-11T03:50:05.810Z,7.42
2023-01-11T03:51:05.836Z,7.45
2023-01-11T03:52:05.789Z,7.45
2023-01-11T03:53:05.793Z,7.46
2023-01-11T03:54:05.760Z,7.46
2023-01-11T03:55:06.228Z,7.48
2023-01-11T03:56:05.779Z,7.46
2023-01-11T03:57:05.760Z,7.48
2023-01-11T03:58:05.717Z,7.49
2023-01-11T03:59:05.752Z,7.50
2023-01-11T04:00:05.709Z,7.50
2023-01-11T04:01:05.760Z,7.50
2023-01-11T04:02:05.715Z,7.50
2023-01-11T04:03:05.693Z,7.53
2023-01-11T04:04:05.702Z,7.55
2023-01-11T04:05:05.665Z,7.57
2023-01-11T04:06:05.641Z,7.57
2023-01-11T04:07:05.662Z,7.58
2023-01-11T04:08:05.601Z,7.58
2023-01-11T04:09:05.617Z,7.58
2023-01-11T04:10:05.586Z,7.60
2023-01-11T04:11:05.590Z,7.61
2023-01-11T04:12:05.565Z,7.61
2023-01-11T04:13:05.602Z,7.63
2023-01-11T04:14:05.544Z,7.64
2023-01-11T04:15:05.571Z,7.68
2023-01-11T04:16:05.594Z,7.69
2023-01-11T04:17:05.553Z,7.69
2023-01-11T04:18:05.511Z,7.72
2023-01-11T04:19:05.511Z,7.72
2023-01-11T04:20:05.485Z,7.77
2023-01-11T04:21:05.480Z,7.77
2023-01-11T04:22:05.432Z,7.79
2023-01-11T04:23:05.457Z,7.80
2023-01-11T04:24:05.430Z,7.82
2023-01-11T04:25:05.446Z,7.83
2023-01-11T04:26:05.389Z,7.86
2023-01-11T04:27:05.401Z,7.89
2023-01-11T04:28:05.374Z,7.90
2023-01-11T04:29:05.369Z,7.90
2023-01-11T04:30:05.359Z,7.90
2023-01-11T04:31:05.357Z,7.90
2023-01-11T04:32:05.328Z,7.90
2023-01-11T04:33:05.369Z,7.90
2023-01-11T04:34:05.313Z,7.92
2023-01-11T04:35:05.336Z,7.90
2023-01-11T04:36:05.289Z,7.92
2023-01-11T04:37:05.898Z,7.92
2023-01-11T04:38:05.311Z,7.92
2023-01-11T04:39:05.278Z,7.92
2023-01-11T04:40:05.237Z,7.92
2023-01-11T04:41:05.270Z,7.92
2023-01-11T04:42:05.224Z,7.92
2023-01-11T04:43:05.225Z,7.92
2023-01-11T04:44:05.254Z,7.93
2023-01-11T04:45:05.263Z,7.93
2023-01-11T04:46:05.242Z,7.95
2023-01-11T04:47:05.199Z,7.97
2023-01-11T04:48:05.151Z,7.97
2023-01-11T04:49:05.255Z,7.95
2023-01-11T04:50:05.170Z,7.97
2023-01-11T04:51:05.158Z,7.95
2023-01-11T04:52:05.168Z,7.97
2023-01-11T04:53:05.117Z,7.95
2023-01-11T04:54:05.081Z,7.97
2023-01-11T04:55:05.115Z,7.97
2023-01-11T04:56:05.082Z,7.95
2023-01-11T04:57:05.082Z,7.95
2023-01-11T04:58:05.039Z,7.95
2023-01-11T04:59:05.056Z,7.95
2023-01-11T05:00:05.025Z,7.93
2023-01-11T05:01:05.082Z,7.97
2023-01-11T05:02:04.997Z,7.97
2023-01-11T05:03:05.010Z,7.95
2023-01-11T05:04:05.051Z,7.97
2023-01-11T05:05:04.980Z,7.95
2023-01-11T05:06:04.946Z,7.93
2023-01-11T05:07:04.987Z,7.95
2023-01-11T05:08:05.030Z,7.95
2023-01-11T05:09:04.942Z,7.95
2023-01-11T05:10:04.929Z,7.97
2023-01-11T05:11:04.917Z,7.97
2023-01-11T05:12:04.896Z,7.95
2023-01-11T05:13:04.908Z,7.95
2023-01-11T05:14:04.893Z,7.95
2023-01-11T05:15:04.867Z,7.95
2023-01-11T05:16:04.894Z,7.95
2023-01-11T05:17:04.843Z,7.95
2023-01-11T05:18:04.820Z,7.95
2023-01-11T05:19:04.851Z,7.95
2023-01-11T05:20:04.823Z,7.97
2023-01-11T05:21:04.812Z,7.95
2023-01-11T05:22:04.775Z,7.97
2023-01-11T05:23:04.784Z,7.97
2023-01-11T05:24:04.737Z,7.97
2023-01-11T05:25:04.764Z,7.98
2023-01-11T05:26:04.727Z,8.01
2023-01-11T05:27:04.724Z,8.02
2023-01-11T05:28:04.725Z,8.02
2023-01-11T05:29:04.725Z,8.02
2023-01-11T05:30:04.716Z,8.01
2023-01-11T05:31:04.685Z,8.02
2023-01-11T05:32:04.711Z,8.01
2023-01-11T05:33:04.665Z,8.01
2023-01-11T05:34:04.652Z,8.02
2023-01-11T05:35:04.616Z,8.02
2023-01-11T05:36:04.631Z,8.02
2023-01-11T05:37:04.636Z,8.04
2023-01-11T05:38:04.654Z,8.05
2023-01-11T05:39:04.575Z,8.02
2023-01-11T05:40:04.640Z,8.02
2023-01-11T05:41:04.572Z,8.02
2023-01-11T05:42:04.568Z,8.02
2023-01-11T05:43:04.538Z,8.05
2023-01-11T05:44:04.566Z,8.05
2023-01-11T05:45:04.501Z,8.07
2023-01-11T05:46:04.552Z,8.05
2023-01-11T05:47:04.503Z,8.05
2023-01-11T05:48:04.482Z,8.05
2023-01-11T05:49:04.501Z,8.07
2023-01-11T05:50:04.489Z,8.07
2023-01-11T05:51:04.435Z,8.08
2023-01-11T05:52:04.442Z,8.08
2023-01-11T05:53:04.430Z,8.08
2023-01-11T05:54:04.426Z,8.08
2023-01-11T05:55:04.405Z,8.07
2023-01-11T05:56:04.411Z,8.10
2023-01-11T05:57:04.395Z,8.08
2023-01-11T05:58:04.384Z,8.10
2023-01-11T05:59:04.599Z,8.11
2023-01-11T06:00:04.419Z,8.11
2023-01-11T06:01:04.327Z,8.11
2023-01-11T06:02:04.424Z,8.11
2023-01-11T06:03:04.379Z,8.10
2023-01-11T06:04:04.319Z,8.11
2023-01-11T06:05:04.272Z,8.11
2023-01-11T06:06:04.284Z,8.11
2023-01-11T06:07:04.335Z,8.15
2023-01-11T06:08:04.274Z,8.15
2023-01-11T06:09:04.238Z,8.12
2023-01-11T06:10:04.249Z,8.15
2023-01-11T06:11:04.622Z,8.12
2023-01-11T06:12:04.213Z,8.12
2023-01-11T06:13:04.198Z,8.15
2023-01-11T06:14:04.224Z,8.15
2023-01-11T06:15:04.163Z,8.15
2023-01-11T06:16:04.181Z,8.15
2023-01-11T06:17:04.138Z,8.16
2023-01-11T06:18:04.163Z,8.18
2023-01-11T06:19:04.147Z,8.19
2023-01-11T06:20:04.146Z,8.19
2023-01-11T06:21:04.084Z,8.19
2023-01-11T06:22:04.093Z,8.19
2023-01-11T06:23:04.080Z,8.20
2023-01-11T06:24:04.254Z,8.20
2023-01-11T06:25:04.043Z,8.22
2023-01-11T06:26:04.063Z,8.20
2023-01-11T06:27:04.042Z,8.22
2023-01-11T06:28:04.063Z,8.23
2023-01-11T06:29:04.019Z,8.23
2023-01-11T06:30:04.038Z,8.25
2023-01-11T06:31:04.100Z,8.22
2023-01-11T06:32:04.012Z,8.23
2023-01-11T06:33:03.974Z,8.25
2023-01-11T06:34:03.987Z,8.26
2023-01-11T06:35:03.932Z,8.25
2023-01-11T06:36:03.956Z,8.26
2023-01-11T06:37:03.932Z,8.26
2023-01-11T06:38:03.942Z,8.26
2023-01-11T06:39:04.558Z,8.26
2023-01-11T06:40:04.691Z,8.25
2023-01-11T06:41:03.863Z,8.25
2023-01-11T06:42:03.892Z,8.23
2023-01-11T06:43:03.875Z,8.25
2023-01-11T06:44:03.874Z,8.26
2023-01-11T06:45:03.820Z,8.26
2023-01-11T06:46:03.860Z,8.28
2023-01-11T06:47:03.800Z,8.29
2023-01-11T06:48:03.831Z,8.30
2023-01-11T06:49:03.823Z,8.33
2023-01-11T06:50:03.798Z,8.30
2023-01-11T06:51:03.767Z,8.30
2023-01-11T06:52:03.764Z,8.33
2023-01-11T06:53:03.731Z,8.30
2023-01-11T06:54:03.749Z,8.29
2023-01-11T06:55:03.711Z,8.33
2023-01-11T06:56:03.970Z,8.34
2023-01-11T06:57:03.728Z,8.34
2023-01-11T06:58:03.701Z,8.33
2023-01-11T06:59:03.678Z,8.33
2023-01-11T07:00:03.890Z,8.36
2023-01-11T07:01:03.672Z,8.37
2023-01-11T07:02:03.911Z,8.37
2023-01-11T07:03:03.639Z,8.38
2023-01-11T07:04:03.677Z,8.37
2023-01-11T07:05:03.597Z,8.36
2023-01-11T07:06:04.352Z,8.37
2023-01-11T07:07:03.581Z,8.37
2023-01-11T07:08:03.601Z,8.38
2023-01-11T07:09:03.577Z,8.38
2023-01-11T07:10:03.593Z,8.40
2023-01-11T07:11:03.609Z,8.40
2023-01-11T07:12:03.556Z,8.41
2023-01-11T07:13:03.510Z,8.40
2023-01-11T07:14:03.544Z,8.38
2023-01-11T07:15:03.546Z,8.38
2023-01-11T07:16:03.513Z,8.37
2023-01-11T07:17:03.479Z,8.40
2023-01-11T07:18:03.477Z,8.38
2023-01-11T07:19:04.253Z,8.38
2023-01-11T07:20:03.723Z,8.40
2023-01-11T07:21:03.594Z,8.38
2023-01-11T07:22:03.432Z,8.40
2023-01-11T07:23:03.403Z,8.40
2023-01-11T07:24:03.430Z,8.38
2023-01-11T07:25:03.409Z,8.40
2023-01-11T07:26:03.455Z,8.43
2023-01-11T07:27:03.352Z,8.41
2023-01-11T07:28:03.387Z,8.40
2023-01-11T07:29:03.330Z,8.41
2023-01-11T07:30:03.360Z,8.41
2023-01-11T07:31:03.379Z,8.38
2023-01-11T07:32:03.322Z,8.40
2023-01-11T07:33:03.298Z,8.41
2023-01-11T07:34:03.329Z,8.41
2023-01-11T07:35:03.264Z,8.40
2023-01-11T07:36:03.289Z,8.44
2023-01-11T07:37:03.238Z,8.44
2023-01-11T07:38:03.280Z,8.44
2023-01-11T07:39:04.127Z,8.43
2023-01-11T07:40:03.272Z,8.44
2023-01-11T07:41:03.358Z,8.47
2023-01-11T07:42:03.211Z,8.47
2023-01-11T07:43:03.178Z,8.47
2023-01-11T07:44:03.206Z,8.48
2023-01-11T07:45:03.195Z,8.48
2023-01-11T07:46:04.029Z,8.48
2023-01-11T07:47:03.151Z,8.52
2023-01-11T07:48:03.130Z,8.48
2023-01-11T07:49:03.141Z,8.50
2023-01-11T07:50:03.170Z,8.48
2023-01-11T07:51:03.080Z,8.47
2023-01-11T07:52:03.099Z,8.50
2023-01-11T07:53:03.409Z,8.53
2023-01-11T07:54:03.071Z,8.52
2023-01-11T07:55:03.058Z,8.52
2023-01-11T07:56:03.047Z,8.50
2023-01-11T07:57:03.015Z,8.48
2023-01-11T07:58:03.037Z,8.50
2023-01-11T07:59:02.994Z,8.48
2023-01-11T08:00:03.897Z,8.48
2023-01-11T08:01:03.841Z,8.50
2023-01-11T08:02:03.011Z,8.50
2023-01-11T08:03:03.181Z,8.52
2023-01-11T08:04:02.993Z,8.52
2023-01-11T08:05:03.418Z,8.53
2023-01-11T08:06:02.943Z,8.55
2023-01-11T08:07:02.991Z,8.56
2023-01-11T08:08:03.009Z,8.56
2023-01-11T08:09:02.876Z,8.55
2023-01-11T08:10:02.897Z,8.56
2023-01-11T08:11:04.919Z,8.55
2023-01-11T08:12:02.907Z,8.55
2023-01-11T08:13:02.898Z,8.58
2023-01-11T08:14:03.627Z,8.56
2023-01-11T08:15:02.805Z,8.58
2023-01-11T08:16:02.867Z,8.58
2023-01-11T08:17:02.836Z,8.58
2023-01-11T08:18:02.826Z,8.58
2023-01-11T08:19:02.769Z,8.59
2023-01-11T08:20:02.790Z,8.59
2023-01-11T08:21:02.777Z,8.59
2023-01-11T08:22:02.790Z,8.61
2023-01-11T08:23:02.743Z,8.61
2023-01-11T08:24:02.759Z,8.61
2023-01-11T08:25:02.720Z,8.62
2023-01-11T08:26:02.743Z,8.62
2023-01-11T08:27:02.759Z,8.62
2023-01-11T08:28:02.675Z,8.62
2023-01-11T08:29:02.656Z,8.63
2023-01-11T08:30:02.676Z,8.63
2023-01-11T08:31:02.719Z,8.62
2023-01-11T08:32:02.645Z,8.65
2023-01-11T08:33:02.617Z,8.63
2023-01-11T08:34:02.644Z,8.65
2023-01-11T08:35:02.587Z,8.65
2023-01-11T08:36:02.598Z,8.65
2023-01-11T08:37:02.610Z,8.65
2023-01-11T08:38:02.691Z,8.65
2023-01-11T08:39:02.538Z,8.66
2023-01-11T08:40:02.546Z,8.66
2023-01-11T08:41:02.826Z,8.66
2023-01-11T08:42:02.608Z,8.66
2023-01-11T08:43:02.540Z,8.65
2023-01-11T08:44:02.518Z,8.68
2023-01-11T08:45:02.494Z,8.68
2023-01-11T08:46:02.541Z,8.66
2023-01-11T08:47:02.475Z,8.70
2023-01-11T08:48:02.502Z,8.70
2023-01-11T08:49:02.436Z,8.68
2023-01-11T08:50:02.455Z,8.68
2023-01-11T08:51:02.467Z,8.68
2023-01-11T08:52:02.427Z,8.68
2023-01-11T08:53:02.400Z,8.70
2023-01-11T08:54:02.414Z,8.68
2023-01-11T08:55:02.365Z,8.71
2023-01-11T08:56:02.392Z,8.70
2023-01-11T08:57:03.302Z,8.73
2023-01-11T08:58:02.390Z,8.73
2023-01-11T08:59:02.446Z,8.74
2023-01-11T09:00:02.387Z,8.73
2023-01-11T09:01:02.436Z,8.74
2023-01-11T09:02:02.431Z,8.73
2023-01-11T09:03:02.454Z,8.74
2023-01-11T09:04:03.671Z,8.76
2023-01-11T09:05:02.247Z,8.76
2023-01-11T09:06:02.269Z,8.74
2023-01-11T09:07:02.262Z,8.76
2023-01-11T09:08:02.288Z,8.76
2023-01-11T09:09:02.224Z,8.76
2023-01-11T09:10:02.223Z,8.76
2023-01-11T09:11:02.174Z,8.77
2023-01-11T09:12:04.714Z,8.77
2023-01-11T09:13:02.163Z,8.77
2023-01-11T09:14:02.165Z,8.79
2023-01-11T09:15:02.131Z,8.79
2023-01-11T09:16:02.217Z,8.80
2023-01-11T09:17:02.118Z,8.81
2023-01-11T09:18:02.134Z,8.81
2023-01-11T09:19:10.374Z,8.83
2023-01-11T09:20:02.102Z,8.84
2023-01-11T09:21:02.059Z,8.86
2023-01-11T09:22:02.071Z,8.84
2023-01-11T09:23:02.053Z,8.84
2023-01-11T09:24:02.060Z,8.84
2023-01-11T09:25:02.032Z,8.83
2023-01-11T09:26:02.076Z,8.86
2023-01-11T09:27:02.068Z,8.86
2023-01-11T09:28:02.051Z,8.87
2023-01-11T09:29:02.081Z,8.87
2023-01-11T09:30:02.000Z,8.87
2023-01-11T09:31:02.012Z,8.89
2023-01-11T09:32:01.968Z,8.87
2023-01-11T09:33:01.917Z,8.87
2023-01-11T09:34:01.931Z,8.91
2023-01-11T09:35:01.901Z,8.89
2023-01-11T09:36:01.911Z,8.92
2023-01-11T09:37:01.882Z,8.91
2023-01-11T09:38:01.900Z,8.92
2023-01-11T09:39:01.849Z,8.92
2023-01-11T09:40:01.864Z,8.91
2023-01-11T09:41:01.832Z,8.89
2023-01-11T09:42:01.858Z,8.91
2023-01-11T09:43:01.813Z,8.89
2023-01-11T09:44:01.822Z,8.91
2023-01-11T09:45:01.806Z,8.91
2023-01-11T09:46:01.775Z,8.91
2023-01-11T09:47:01.789Z,8.92
2023-01-11T09:48:01.779Z,8.92
2023-01-11T09:49:01.765Z,8.92
2023-01-11T09:50:01.732Z,8.92
2023-01-11T09:51:01.798Z,8.94
2023-01-11T09:52:01.707Z,8.94
2023-01-11T09:53:01.760Z,8.95
2023-01-11T09:54:01.702Z,8.96
2023-01-11T09:55:01.698Z,8.95
2023-01-11T09:56:01.676Z,8.96
2023-01-11T09:57:01.689Z,8.96
2023-01-11T09:58:01.670Z,8.96
2023-01-11T09:59:01.664Z,8.95
2023-01-11T10:00:01.624Z,8.96
2023-01-11T10:01:01.798Z,8.96
2023-01-11T10:02:01.622Z,8.98
2023-01-11T10:03:01.602Z,8.99
2023-01-11T10:04:01.587Z,9.01
2023-01-11T10:05:01.621Z,9.01
2023-01-11T10:06:01.601Z,8.99
2023-01-11T10:07:01.568Z,9.01
2023-01-11T10:18:21.216Z,9.04
2023-01-11T10:18:27.730Z,9.05
2023-01-11T10:18:30.454Z,9.10
2023-01-11T10:18:34.250Z,9.05
2023-01-11T10:18:39.495Z,9.05
2023-01-11T10:19:31.456Z,9.10
2023-01-11T10:20:02.422Z,9.11
2023-01-11T10:21:01.391Z,9.11
2023-01-11T10:22:01.426Z,9.14
2023-01-11T10:23:01.389Z,9.14
2023-01-11T10:24:01.351Z,9.13
2023-01-11T10:25:01.363Z,9.14
2023-01-11T10:26:01.320Z,9.14
2023-01-11T10:27:01.365Z,9.14
2023-01-11T10:28:01.336Z,9.13
2023-01-11T10:29:01.329Z,9.11
2023-01-11T10:30:01.301Z,9.10
2023-01-11T10:31:01.371Z,9.08
2023-01-11T10:32:01.256Z,9.05
2023-01-11T10:33:01.270Z,9.05
2023-01-11T10:34:01.253Z,9.08
2023-01-11T10:35:01.249Z,9.05
2023-01-11T10:36:01.214Z,9.08
2023-01-11T10:37:01.228Z,9.04
2023-01-11T10:38:01.190Z,9.08
2023-01-11T10:39:01.230Z,9.05
2023-01-11T10:40:01.210Z,9.10
2023-01-11T10:41:01.194Z,9.08
2023-01-11T10:42:01.143Z,9.10
2023-01-11T10:43:01.149Z,9.05
2023-01-11T10:44:01.139Z,9.08
2023-01-11T10:45:01.139Z,9.08
2023-01-11T10:46:01.261Z,9.10
2023-01-11T10:47:01.121Z,9.13
2023-01-11T10:48:01.104Z,9.11
2023-01-11T10:49:01.069Z,9.10
2023-01-11T10:50:01.095Z,9.10
2023-01-11T10:51:01.071Z,9.05
2023-01-11T10:52:01.071Z,9.05
2023-01-11T10:53:01.081Z,9.05
2023-01-11T10:54:01.022Z,9.05
2023-01-11T10:55:01.010Z,9.05
2023-01-11T10:56:01.024Z,9.05
2023-01-11T10:57:03.017Z,9.05
2023-01-11T10:58:03.503Z,9.05
2023-01-11T10:59:00.991Z,9.05
2023-01-11T11:00:00.966Z,9.02
2023-01-11T11:01:01.253Z,9.02
2023-01-11T11:02:00.945Z,9.02
2023-01-11T11:03:00.938Z,9.02
2023-01-11T11:04:00.936Z,9.04
2023-01-11T11:05:00.918Z,9.04
2023-01-11T11:06:00.872Z,9.04
2023-01-11T11:07:00.898Z,9.02
2023-01-11T11:08:00.859Z,9.02
2023-01-11T11:09:00.903Z,9.02
2023-01-11T11:10:00.836Z,8.99
2023-01-11T11:11:00.840Z,9.01
2023-01-11T11:12:00.798Z,8.99
2023-01-11T11:13:00.825Z,8.98
2023-01-11T11:14:00.799Z,8.98
2023-01-11T11:15:00.796Z,8.99
2023-01-11T11:16:00.825Z,9.01
2023-01-11T11:17:00.820Z,9.04
2023-01-11T11:18:00.752Z,9.08
2023-01-11T11:19:00.776Z,9.11
2023-01-11T11:20:01.175Z,9.13
2023-01-11T11:21:00.745Z,9.14
2023-01-11T11:22:00.722Z,9.18
2023-01-11T11:23:00.734Z,9.23
2023-01-11T11:24:00.816Z,9.23
2023-01-11T11:25:00.997Z,9.26
2023-01-11T11:26:00.646Z,9.26
2023-01-11T11:27:00.728Z,9.29
2023-01-11T11:28:00.630Z,9.29
2023-01-11T11:29:00.653Z,9.29
2023-01-11T11:30:00.625Z,9.26
2023-01-11T11:31:00.627Z,9.26
2023-01-11T11:32:00.627Z,9.26
2023-01-11T11:33:00.601Z,9.20
2023-01-11T11:34:00.558Z,9.17
2023-01-11T11:35:00.580Z,9.15
2023-01-11T11:36:00.517Z,9.15
2023-01-11T11:37:00.534Z,9.14
2023-01-11T11:38:00.602Z,9.14
2023-01-11T11:39:00.794Z,9.15
2023-01-11T11:40:00.751Z,9.17
2023-01-11T11:41:00.681Z,9.15
2023-01-11T11:42:00.726Z,9.17
2023-01-11T11:43:00.615Z,9.20
2023-01-11T11:44:00.567Z,9.21
2023-01-11T11:45:00.836Z,9.24
2023-01-11T11:46:00.784Z,9.28
2023-01-11T11:47:00.680Z,9.31
2023-01-11T11:48:00.403Z,9.29
2023-01-11T11:49:00.402Z,9.31
2023-01-11T11:50:00.415Z,9.33
2023-01-11T11:51:00.489Z,9.36
2023-01-11T11:52:00.679Z,9.39
2023-01-11T11:53:00.435Z,9.40
2023-01-11T11:54:01.286Z,9.43
2023-01-11T11:55:00.466Z,9.48
2023-01-11T11:56:00.576Z,9.47
2023-01-11T11:57:00.430Z,9.47
2023-01-11T11:58:00.381Z,9.47
2023-01-11T11:59:04.565Z,9.43
2023-01-11T12:00:00.428Z,9.46
2023-01-11T12:01:00.362Z,9.46
2023-01-11T12:02:00.399Z,9.42
2023-01-11T12:03:00.247Z,9.39
2023-01-11T12:04:00.218Z,9.36
2023-01-11T12:05:00.268Z,9.38
2023-01-11T12:06:00.207Z,9.36
2023-01-11T12:07:00.196Z,9.32
2023-01-11T12:08:00.166Z,9.32
2023-01-11T12:09:00.177Z,9.31
2023-01-11T12:10:00.159Z,9.31
2023-01-11T12:11:00.205Z,9.31
2023-01-11T12:12:00.137Z,9.32
2023-01-11T12:13:00.169Z,9.33
2023-01-11T12:14:00.123Z,9.36
2023-01-11T12:15:00.237Z,9.39
2023-01-11T12:16:00.077Z,9.43
2023-01-11T12:17:00.283Z,9.50
2023-01-11T12:18:00.236Z,9.51
2023-01-11T12:19:00.306Z,9.51
2023-01-11T12:20:00.035Z,9.54
2023-01-11T12:21:00.035Z,9.54
2023-01-11T12:22:00.047Z,9.56
2023-01-11T12:23:00.005Z,9.51
2023-01-11T12:23:59.975Z,9.51
2023-01-11T12:24:59.986Z,9.48
2023-01-11T12:25:59.953Z,9.50
2023-01-11T12:26:59.994Z,9.46
2023-01-11T12:27:59.955Z,9.42
2023-01-11T12:28:59.981Z,9.35
2023-01-11T12:29:59.962Z,9.36
2023-01-11T12:31:00.059Z,9.35
2023-01-11T12:31:59.894Z,9.35
2023-01-11T12:32:59.954Z,9.31
2023-01-11T12:33:59.975Z,9.33
2023-01-11T12:35:00.090Z,9.32
2023-01-11T12:36:03.092Z,9.29
2023-01-11T12:37:00.480Z,9.28
2023-01-11T12:38:00.004Z,9.24
2023-01-11T12:39:00.234Z,9.28
2023-01-11T12:40:00.224Z,9.29
2023-01-11T12:41:00.284Z,9.28
2023-01-11T12:42:00.178Z,9.26
2023-01-11T12:43:00.059Z,9.28
2023-01-11T12:43:59.870Z,9.29
2023-01-11T12:44:59.915Z,9.31
2023-01-11T12:46:00.138Z,9.29
2023-01-11T12:47:00.007Z,9.31
2023-01-11T12:48:00.120Z,9.31
2023-01-11T12:48:59.955Z,9.32
2023-01-11T12:49:59.871Z,9.32
2023-01-11T12:50:59.914Z,9.32
2023-01-11T12:52:00.060Z,9.31
2023-01-11T12:53:00.102Z,9.24
2023-01-11T12:54:00.004Z,9.17
2023-01-11T12:54:59.794Z,9.15
2023-01-11T12:55:59.808Z,9.13
2023-01-11T12:56:59.825Z,9.11
2023-01-11T12:57:59.968Z,9.10
2023-01-11T12:58:59.741Z,9.10
2023-01-11T12:59:59.889Z,9.05
2023-01-11T13:00:59.783Z,9.04
2023-01-11T13:01:59.691Z,9.01
2023-01-11T13:02:59.758Z,9.01
2023-01-11T13:03:59.723Z,8.99
2023-01-11T13:04:59.771Z,8.99
2023-01-11T13:05:59.575Z,9.01
2023-01-11T13:06:59.785Z,9.01
2023-01-11T13:07:59.666Z,8.99
2023-01-11T13:08:59.636Z,9.01
2023-01-11T13:09:59.573Z,9.04
2023-01-11T13:10:59.657Z,9.05
2023-01-11T13:11:59.604Z,9.05
2023-01-11T13:12:59.609Z,9.02
2023-01-11T13:13:59.590Z,9.01
2023-01-11T13:14:59.714Z,9.01
2023-01-11T13:15:59.481Z,8.96
2023-01-11T13:16:59.539Z,8.98
2023-01-11T13:17:59.450Z,8.96
2023-01-11T13:18:59.539Z,8.92
2023-01-11T13:19:59.352Z,8.92
2023-01-11T13:21:01.793Z,8.92
2023-01-11T13:21:59.347Z,8.92
2023-01-11T13:22:59.393Z,8.89
2023-01-11T13:23:59.297Z,8.89